Tai Da — V3ZG7 — position and weather

sailwx.info

Track history (hours):
 
Tides and Currents Weather Stations Pressure Air Temp Water Temp Dewpoint Dewpoint Depression Visibility Wind Speed Wind Dir Waves Ship Positions

Tai Da

Last reported at 2018-May-10 11:20 UTC. Time now 2018-May-27 03:12 UTC.
Position N 33°33' E 129°31'.
Warning: this ship's position is 16 days out of date.

Length 74 m; draft 4.9 m.

Type: Cargo ship. MMSI: 312222000.

Date/timePositionNaut miles runAvg speedWind from/ knotsBaromVisibWave heightAir tempDewpointWater temp
2018-May-10 11:20N 33°33' E 129°31'3 8.5
2018-May-10 11:00N 33°34' E 129°34'5 8.6
2018-May-10 10:27N 33°36' E 129°39'4 8.7
2018-May-10 10:00N 33°37' E 129°43'15 8.4
2018-May-10 08:15N 33°43' E 129°60'2 8.6
2018-May-10 07:58N 33°45' E 130°02'4 8.8
2018-May-10 07:30N 33°47' E 130°06'4 8.7
2018-May-10 07:00N 33°49' E 130°11'4 8.8
2018-May-10 06:30N 33°52' E 130°15'4 8.9
2018-May-10 05:59N 33°54' E 130°20'4 8.6
2018-May-10 05:30N 33°56' E 130°24'4 8.3
2018-May-10 05:00N 33°57' E 130°29'4 8.5
2018-May-10 04:30N 33°57' E 130°34'4 8.7
2018-May-10 04:00N 33°58' E 130°39'4 8.5
2018-May-10 03:30N 33°58' E 130°44'4 8.3
2018-May-10 03:00N 33°58' E 130°49'4 7.4
2018-May-10 02:30N 33°56' E 130°53'2 4.7
2018-May-10 02:00N 33°55' E 130°56'3 6.9
2018-May-10 01:30N 33°58' E 130°58'4 7.6
2018-May-10 01:00N 33°58' E 131°03'4 8.6
2018-May-10 00:30N 33°55' E 131°07'4 8.5
2018-May-10 00:00N 33°53' E 131°11'4 8.6
2018-May-09 23:30N 33°51' E 131°16'4 8.7
2018-May-09 23:00N 33°50' E 131°21'4 8.5
2018-May-09 22:30N 33°49' E 131°26'4 8.5
2018-May-09 22:00N 33°49' E 131°31'4 8.4
2018-May-09 21:30N 33°48' E 131°36'7 8.8
2018-May-09 20:45N 33°46' E 131°44'37 8.5
2018-May-09 16:27N 33°48' E 132°28'17 9.1
2018-May-09 14:32N 33°59' E 132°44'0 9.6
2018-May-09 14:29N 33°60' E 132°44'85 8.4
2018-May-09 04:23N 34°25' E 134°22'3 9.0
2018-May-09 04:00N 34°27' E 134°25'5 9.1
2018-May-09 03:30N 34°30' E 134°29'7 8.7
2018-May-09 02:45N 34°34' E 134°36'2 8.6
2018-May-09 02:30N 34°35' E 134°38'4 8.6
2018-May-09 02:00N 34°38' E 134°42'4 8.6
2018-May-09 01:30N 34°41' E 134°46'3 0.2
2018-May-08 03:33N 34°43' E 134°49'0 3.1
2018-May-08 03:24N 34°43' E 134°48'2 5.0
2018-May-08 03:00N 34°41' E 134°47'1 1.6
2018-May-08 02:21N 34°41' E 134°46'0 0.0
2018-May-08 01:51N 34°41' E 134°46'0 0.0
2018-May-08 00:27N 34°41' E 134°46'0 0.0
2018-May-07 23:15N 34°41' E 134°46'0 0.2
2018-May-07 22:57N 34°41' E 134°46'0 0.0
2018-May-07 22:27N 34°41' E 134°46'0 0.0
2018-May-07 21:51N 34°41' E 134°46'0 0.0
2018-May-07 20:03N 34°41' E 134°46'0 0.0
2018-May-07 19:39N 34°41' E 134°46'0 0.0
2018-May-07 19:26N 34°41' E 134°46'0 0.0
2018-May-07 18:56N 34°41' E 134°46'0 0.0
2018-May-07 18:20N 34°41' E 134°46'0 0.0
2018-May-07 17:08N 34°41' E 134°46'0 0.1
2018-May-07 16:56N 34°41' E 134°46'0 0.0
2018-May-07 16:20N 34°41' E 134°46'0 0.0
2018-May-07 15:44N 34°41' E 134°46'0 0.0
2018-May-07 15:20N 34°41' E 134°46'0 0.0
2018-May-07 14:56N 34°41' E 134°46'0 0.0
2018-May-07 14:20N 34°41' E 134°46'0 0.1
2018-May-07 13:50N 34°41' E 134°46'1 2.9
2018-May-07 13:31N 34°40' E 134°45'4 8.1
2018-May-07 13:01N 34°37' E 134°41'4 8.2
2018-May-07 12:30N 34°35' E 134°37'6 8.4
2018-May-07 11:48N 34°31' E 134°32'2 8.5
2018-May-07 11:30N 34°30' E 134°29'90 7.7
2018-May-06 23:53N 34°01' E 132°46'3 6.5
2018-May-06 23:29N 33°59' E 132°44'3 6.4
2018-May-06 23:01N 33°57' E 132°42'5 6.5
2018-May-06 22:18N 33°54' E 132°37'7 6.7
2018-May-06 21:19N 33°49' E 132°32'13 6.9
2018-May-06 19:22N 33°44' E 132°17'24 7.6
2018-May-06 16:10N 33°45' E 131°48'2 7.4
2018-May-06 15:55N 33°45' E 131°46'3 7.4
2018-May-06 15:30N 33°46' E 131°42'4 7.1
2018-May-06 14:58N 33°47' E 131°38'3 7.1
2018-May-06 14:30N 33°48' E 131°34'4 7.3
2018-May-06 14:00N 33°48' E 131°30'4 7.2
2018-May-06 13:31N 33°49' E 131°25'4 7.1
2018-May-06 13:01N 33°50' E 131°21'4 7.0
2018-May-06 12:30N 33°51' E 131°17'3 6.9
2018-May-06 12:00N 33°51' E 131°13'3 6.7
2018-May-06 11:31N 33°53' E 131°09'4 7.2
2018-May-06 11:01N 33°55' E 131°06'4 7.3
2018-May-06 10:30N 33°57' E 131°02'4 7.4
2018-May-06 10:01N 33°58' E 130°58'5 9.8
2018-May-06 09:31N 33°54' E 130°54'5 9.8
2018-May-06 09:01N 33°58' E 130°50'4 8.9
2018-May-06 08:30N 33°58' E 130°45'5 9.1
2018-May-06 08:00N 33°58' E 130°39'5 9.2
2018-May-06 07:30N 33°57' E 130°34'5 9.4
2018-May-06 07:00N 33°57' E 130°28'5 9.7
2018-May-06 06:30N 33°56' E 130°22'5 9.9
2018-May-06 06:00N 33°53' E 130°17'510.0
2018-May-06 05:30N 33°50' E 130°12'510.1
2018-May-06 05:00N 33°48' E 130°07'510.1
2018-May-06 04:30N 33°45' E 130°02'  
Track history (hours):
 
Tides and Currents Weather Stations Pressure Air Temp Water Temp Dewpoint Dewpoint Depression Visibility Wind Speed Wind Dir Waves Ship Positions

Tai Da

Last reported at 2018-May-10 11:20 UTC. Time now 2018-May-27 03:12 UTC.
Position N 33°33' E 129°31'.
Warning: this ship's position is 16 days out of date.

Length 74 m; draft 4.9 m.

Type: Cargo ship. MMSI: 312222000.

Date/timePositionNaut miles runAvg speedWind from/ knotsBaromVisibWave heightAir tempDewpointWater temp
2018-May-10 11:20N 33°33' E 129°31'3 8.5
2018-May-10 11:00N 33°34' E 129°34'5 8.6
2018-May-10 10:27N 33°36' E 129°39'4 8.7
2018-May-10 10:00N 33°37' E 129°43'15 8.4
2018-May-10 08:15N 33°43' E 129°60'2 8.6
2018-May-10 07:58N 33°45' E 130°02'4 8.8
2018-May-10 07:30N 33°47' E 130°06'4 8.7
2018-May-10 07:00N 33°49' E 130°11'4 8.8
2018-May-10 06:30N 33°52' E 130°15'4 8.9
2018-May-10 05:59N 33°54' E 130°20'4 8.6
2018-May-10 05:30N 33°56' E 130°24'4 8.3
2018-May-10 05:00N 33°57' E 130°29'4 8.5
2018-May-10 04:30N 33°57' E 130°34'4 8.7
2018-May-10 04:00N 33°58' E 130°39'4 8.5
2018-May-10 03:30N 33°58' E 130°44'4 8.3
2018-May-10 03:00N 33°58' E 130°49'4 7.4
2018-May-10 02:30N 33°56' E 130°53'2 4.7
2018-May-10 02:00N 33°55' E 130°56'3 6.9
2018-May-10 01:30N 33°58' E 130°58'4 7.6
2018-May-10 01:00N 33°58' E 131°03'4 8.6
2018-May-10 00:30N 33°55' E 131°07'4 8.5
2018-May-10 00:00N 33°53' E 131°11'4 8.6
2018-May-09 23:30N 33°51' E 131°16'4 8.7
2018-May-09 23:00N 33°50' E 131°21'4 8.5
2018-May-09 22:30N 33°49' E 131°26'4 8.5
2018-May-09 22:00N 33°49' E 131°31'4 8.4
2018-May-09 21:30N 33°48' E 131°36'7 8.8
2018-May-09 20:45N 33°46' E 131°44'37 8.5
2018-May-09 16:27N 33°48' E 132°28'17 9.1
2018-May-09 14:32N 33°59' E 132°44'0 9.6
2018-May-09 14:29N 33°60' E 132°44'85 8.4
2018-May-09 04:23N 34°25' E 134°22'3 9.0
2018-May-09 04:00N 34°27' E 134°25'5 9.1
2018-May-09 03:30N 34°30' E 134°29'7 8.7
2018-May-09 02:45N 34°34' E 134°36'2 8.6
2018-May-09 02:30N 34°35' E 134°38'4 8.6
2018-May-09 02:00N 34°38' E 134°42'4 8.6
2018-May-09 01:30N 34°41' E 134°46'3 0.2
2018-May-08 03:33N 34°43' E 134°49'0 3.1
2018-May-08 03:24N 34°43' E 134°48'2 5.0
2018-May-08 03:00N 34°41' E 134°47'1 1.6
2018-May-08 02:21N 34°41' E 134°46'0 0.0
2018-May-08 01:51N 34°41' E 134°46'0 0.0
2018-May-08 00:27N 34°41' E 134°46'0 0.0
2018-May-07 23:15N 34°41' E 134°46'0 0.2
2018-May-07 22:57N 34°41' E 134°46'0 0.0
2018-May-07 22:27N 34°41' E 134°46'0 0.0
2018-May-07 21:51N 34°41' E 134°46'0 0.0
2018-May-07 20:03N 34°41' E 134°46'0 0.0
2018-May-07 19:39N 34°41' E 134°46'0 0.0
2018-May-07 19:26N 34°41' E 134°46'0 0.0
2018-May-07 18:56N 34°41' E 134°46'0 0.0
2018-May-07 18:20N 34°41' E 134°46'0 0.0
2018-May-07 17:08N 34°41' E 134°46'0 0.1
2018-May-07 16:56N 34°41' E 134°46'0 0.0
2018-May-07 16:20N 34°41' E 134°46'0 0.0
2018-May-07 15:44N 34°41' E 134°46'0 0.0
2018-May-07 15:20N 34°41' E 134°46'0 0.0
2018-May-07 14:56N 34°41' E 134°46'0 0.0
2018-May-07 14:20N 34°41' E 134°46'0 0.1
2018-May-07 13:50N 34°41' E 134°46'1 2.9
2018-May-07 13:31N 34°40' E 134°45'4 8.1
2018-May-07 13:01N 34°37' E 134°41'4 8.2
2018-May-07 12:30N 34°35' E 134°37'6 8.4
2018-May-07 11:48N 34°31' E 134°32'2 8.5
2018-May-07 11:30N 34°30' E 134°29'90 7.7
2018-May-06 23:53N 34°01' E 132°46'3 6.5
2018-May-06 23:29N 33°59' E 132°44'3 6.4
2018-May-06 23:01N 33°57' E 132°42'5 6.5
2018-May-06 22:18N 33°54' E 132°37'7 6.7
2018-May-06 21:19N 33°49' E 132°32'13 6.9
2018-May-06 19:22N 33°44' E 132°17'24 7.6
2018-May-06 16:10N 33°45' E 131°48'2 7.4
2018-May-06 15:55N 33°45' E 131°46'3 7.4
2018-May-06 15:30N 33°46' E 131°42'4 7.1
2018-May-06 14:58N 33°47' E 131°38'3 7.1
2018-May-06 14:30N 33°48' E 131°34'4 7.3
2018-May-06 14:00N 33°48' E 131°30'4 7.2
2018-May-06 13:31N 33°49' E 131°25'4 7.1
2018-May-06 13:01N 33°50' E 131°21'4 7.0
2018-May-06 12:30N 33°51' E 131°17'3 6.9
2018-May-06 12:00N 33°51' E 131°13'3 6.7
2018-May-06 11:31N 33°53' E 131°09'4 7.2
2018-May-06 11:01N 33°55' E 131°06'4 7.3
2018-May-06 10:30N 33°57' E 131°02'4 7.4
2018-May-06 10:01N 33°58' E 130°58'5 9.8
2018-May-06 09:31N 33°54' E 130°54'5 9.8
2018-May-06 09:01N 33°58' E 130°50'4 8.9
2018-May-06 08:30N 33°58' E 130°45'5 9.1
2018-May-06 08:00N 33°58' E 130°39'5 9.2
2018-May-06 07:30N 33°57' E 130°34'5 9.4
2018-May-06 07:00N 33°57' E 130°28'5 9.7
2018-May-06 06:30N 33°56' E 130°22'5 9.9
2018-May-06 06:00N 33°53' E 130°17'510.0
2018-May-06 05:30N 33°50' E 130°12'510.1
2018-May-06 05:00N 33°48' E 130°07'510.1
2018-May-06 04:30N 33°45' E 130°02'  

Dump ship's entire track history